CYWG/YWG METAR and TAF weather

Enter ICAO airport designator
Station Type Date Time Source
CYWG METAR 2019/10/20 18:00 UTC NOAA

CYWG 201800Z 21005KT 15SM BKN250 10/04 A2976 RMK CI7 SLP085


Station Type Date Time Source
CYWG Decoded METAR 2019/10/20 18:00 UTC NOAA

Winnipeg Int. Airportman., Canada (CYWG) 49-54N 097-14W 239M
Oct 20, 2019 - 02:00 PM EDT / 2019.10.20 1800 UTC
Wind: from the SSW (210 degrees) at 6 MPH (5 KT):0
Visibility: 15 mile(s):0
Sky conditions: mostly cloudy
Temperature: 50 F (10 C)
Dew Point: 39 F (4 C)
Relative Humidity: 66%
Pressure (altimeter): 29.76 in. Hg (1007 hPa)
ob: CYWG 201800Z 21005KT 15SM BKN250 10/04 A2976 RMK CI7 SLP085
cycle: 18

Station Type Date Time Source
CYWG TAF 2019/10/20 18:42 UTC NOAA

TAF CYWG 201739Z 2018/2118 18005KT P6SM BKN250
BECMG 2018/2020 21010KT
BECMG 2100/2102 VRB03KT
FM210600 33006KT P6SM BKN120
FM211000 02008KT P6SM VCSH BKN040 OVC080
FM211300 01015KT P6SM -RA BKN015 OVC040
RMK NXT FCST BY 210000Z

Example: see airport list